Latest Coastal Weather Observations for Shark Bay Airport

IDW60701

Issued at 6:03 pm WST Wednesday 28 September 2016 (issued every 10 minutes, with the page automatically refreshed every 10 minutes)

About coastal observations | Map of coastal stations | Coastal observations for WA | Marine services | Other Formats
Station Details ID: 006105 Name: SHARK BAY AIRPORT Lat: -25.89 Lon: 113.58 Height: 33.8 m
Data from the previous 72 hours. | See also: Recent months at Shark Bay Airport
Date/Time
WST
Temp
°C
Wind Pressure Rain since
9am
mm
Weather Cloud Vis
km
Sea
Height
m
Swell
Dir  Spd
kts
Gust
kts
hPa Trend Height
m
Period
s
Dir
28/06:00pm 18.2 S 14 18 1017.5 - 0.0 - - - - - - -
28/05:30pm 19.8 S 12 17 1017.4 - 0.0 - - - - - - -
28/05:00pm 21.1 S 12 16 1017.1 - 0.0 - - - - - - -
28/04:30pm 21.6 S 12 17 1017.0 - 0.0 - - - - - - -
28/04:00pm 22.6 S 13 19 1016.9 - 0.0 - - - - - - -
28/03:30pm 23.6 SE 8 16 1017.0 - 0.0 - - - - - - -
28/03:00pm 23.3 SSE 9 17 1017.3 - 0.0 - - - - - - -
28/02:30pm 23.1 SSE 10 15 1017.7 - 0.0 - - - - - - -
28/02:00pm 23.1 SE 9 16 1018.1 - 0.0 - - - - - - -
28/01:30pm 22.9 ESE 12 19 1018.4 - 0.0 - - - - - - -
28/01:00pm 22.0 SE 12 20 1018.8 - 0.0 - - - - - - -
28/12:30pm 21.7 SE 13 19 1019.4 - 0.0 - - - - - - -
28/12:00pm 20.6 SE 14 21 1019.9 - 0.0 - - - - - - -
28/11:30am 20.2 SE 13 20 1020.3 - 0.0 - - - - - - -
28/11:00am 20.4 SSE 13 21 1020.6 - 0.0 - - - - - - -
28/10:30am 20.2 SE 16 24 1020.9 - 0.0 - - - - - - -
28/10:00am 18.8 SE 19 25 1021.3 - 0.0 - - - - - - -
28/09:41am 18.4 SSE 18 28 1021.3 - 0.0 - - - - - - -
28/09:30am 18.4 SSE 19 25 1021.4 - 0.0 - - - - - - -
28/09:00am 17.9 SE 16 28 1021.4 - 0.0 - - - - - - -
28/08:58am 17.9 SE 15 28 1021.4 - 0.0 - - - - - - -
28/08:30am 17.2 SE 16 24 1021.1 - 0.0 - - - - - - -
28/08:00am 16.7 SE 18 24 1021.1 - 0.0 - - - - - - -
28/07:30am 16.1 SE 18 24 1020.6 - 0.0 - - - - - - -
28/07:00am 15.0 SE 13 20 1020.3 - 0.0 - - - - - - -
28/06:30am 14.5 SE 11 18 1019.9 - 0.0 - - - - - - -
28/06:00am 13.7 SE 11 16 1019.6 - 0.0 - - - - - - -
28/05:30am 13.6 SE 12 16 1019.2 - 0.0 - - - - - - -
28/05:00am 14.1 SE 13 21 1018.8 - 0.0 - - - - - - -
28/04:30am 14.1 SE 9 13 1018.4 - 0.0 - - - - - - -
28/04:00am 14.6 SSE 11 16 1018.3 - 0.0 - - - - - - -
28/03:30am 15.2 SE 11 14 1018.1 - 0.0 - - - - - - -
28/03:00am 15.5 SSE 9 12 1018.2 - 0.0 - - - - - - -
28/02:30am 15.5 SSE 10 15 1018.4 - 0.0 - - - - - - -
28/02:00am 15.5 SSE 8 11 1018.5 - 0.0 - - - - - - -
28/01:30am 15.2 SSE 8 10 1018.6 - 0.0 - - - - - - -
28/01:00am 15.2 SSE 9 13 1018.6 - 0.0 - - - - - - -
28/12:30am 16.5 SSE 10 18 1018.6 - 0.0 - - - - - - -
28/12:00am 16.3 S 9 13 1018.5 - 0.0 - - - - - - -
 
Date/Time
WST
Temp
°C
Wind Pressure Rain since
9am
mm
Weather Cloud Vis
km
Sea
Height
m
Swell
Dir  Spd
kts
Gust
kts
hPa Trend Height
m
Period
s
Dir
27/11:30pm 16.0 S 8 11 1018.6 - 0.0 - - - - - - -
27/11:00pm 14.8 S 6 7 1018.6 - 0.0 - - - - - - -
27/10:30pm 14.2 S 5 6 1018.4 - 0.0 - - - - - - -
27/10:00pm 15.3 S 6 7 1018.4 - 0.0 - - - - - - -
27/09:30pm 15.8 S 8 10 1018.5 - 0.0 - - - - - - -
27/09:00pm 16.3 S 8 11 1018.4 - 0.0 - - - - - - -
27/08:30pm 17.2 S 10 14 1018.1 - 0.0 - - - - - - -
27/08:00pm 17.7 SSW 14 19 1017.8 - 0.0 - - - - - - -
27/07:30pm 17.5 S 9 14 1017.7 - 0.0 - - - - - - -
27/07:00pm 18.0 SSW 13 19 1017.5 - 0.0 - - - - - - -
27/06:30pm 18.5 SSW 15 22 1017.2 - 0.0 - - - - - - -
27/06:00pm 19.0 SSW 15 19 1016.8 - 0.0 - - - - - - -
27/05:30pm 19.9 SSW 16 22 1016.5 - 0.0 - - - - - - -
27/05:00pm 20.5 SSW 19 27 1016.4 - 0.0 - - - - - - -
27/04:30pm 20.9 SSW 19 25 1016.5 - 0.0 - - - - - - -
27/04:00pm 21.6 SW 19 24 1016.3 - 0.0 - - - - - - -
27/03:30pm 21.8 SW 18 23 1016.3 - 0.0 - - - - - - -
27/03:00pm 21.7 SW 17 22 1016.3 - 0.0 - - - - - - -
27/02:30pm 22.0 SW 18 26 1016.6 - 0.0 - - - - - - -
27/02:00pm 22.1 SW 17 23 1016.8 - 0.0 - - - - - - -
27/01:30pm 22.5 SSW 14 20 1017.1 - 0.0 - - - - - - -
27/01:00pm 22.0 SW 12 16 1017.3 - 0.0 - - - - - - -
27/12:30pm 21.9 SW 13 18 1017.5 - 0.0 - - - - - - -
27/12:00pm 22.0 SW 13 18 1017.7 - 0.0 - - - - - - -
27/11:30am 22.4 SSW 14 19 1018.0 - 0.0 - - - - - - -
27/11:00am 22.5 S 11 16 1018.2 - 0.0 - - - - - - -
27/10:30am 21.2 S 12 17 1018.5 - 0.0 - - - - - - -
27/10:00am 21.4 S 12 17 1018.6 - 0.0 - - - - - - -
27/09:30am 19.9 SE 10 14 1019.0 - 0.0 - - - - - - -
27/09:00am 19.4 SE 10 14 1019.1 - 0.0 - - - - - - -
27/08:30am 18.3 SE 10 14 1019.1 - 0.0 - - - - - - -
27/08:00am 17.3 SE 10 14 1018.8 - 0.0 - - - - - - -
27/07:30am 15.1 SE 10 13 1018.4 - 0.0 - - - - - - -
27/07:00am 12.9 SE 7 9 1018.3 - 0.0 - - - - - - -
27/06:30am 11.3 SE 7 8 1018.0 - 0.0 - - - - - - -
27/06:00am 11.0 SSE 8 9 1017.9 - 0.0 - - - - - - -
27/05:30am 10.7 SE 6 8 1017.8 - 0.0 - - - - - - -
27/05:00am 10.7 SSE 7 8 1017.7 - 0.0 - - - - - - -
27/04:30am 10.9 SSE 5 6 1017.6 - 0.0 - - - - - - -
27/04:00am 11.8 SE 5 6 1017.7 - 0.0 - - - - - - -
27/03:30am 12.6 SSE 7 10 1017.9 - 0.0 - - - - - - -
27/03:00am 12.7 SSE 8 10 1018.0 - 0.0 - - - - - - -
27/02:30am 13.1 SSE 8 11 1018.2 - 0.0 - - - - - - -
27/02:00am 13.5 SSE 9 11 1018.3 - 0.0 - - - - - - -
27/01:30am 13.7 SSE 8 10 1018.6 - 0.0 - - - - - - -
27/01:00am 14.2 SSE 9 12 1018.9 - 0.0 - - - - - - -
27/12:30am 14.6 SSE 9 12 1019.1 - 0.0 - - - - - - -
27/12:00am 15.2 S 10 13 1019.3 - 0.0 - - - - - - -
 
Date/Time
WST
Temp
°C
Wind Pressure Rain since
9am
mm
Weather Cloud Vis
km
Sea
Height
m
Swell
Dir  Spd
kts
Gust
kts
hPa Trend Height
m
Period
s
Dir
26/11:30pm 15.4 S 10 14 1019.4 - 0.0 - - - - - - -
26/11:00pm 15.7 S 13 17 1019.4 - 0.0 - - - - - - -
26/10:30pm 15.9 S 14 19 1019.4 - 0.0 - - - - - - -
26/10:00pm 16.1 S 13 19 1019.5 - 0.0 - - - - - - -
26/09:30pm 16.1 S 13 19 1019.5 - 0.0 - - - - - - -
26/09:00pm 16.1 S 13 19 1019.4 - 0.0 - - - - - - -
26/08:30pm 16.4 S 14 19 1019.2 - 0.0 - - - - - - -
26/08:00pm 16.5 S 15 20 1018.9 - 0.0 - - - - - - -
26/07:30pm 16.7 S 14 21 1018.5 - 0.0 - - - - - - -
26/07:00pm 16.9 SSW 13 18 1018.3 - 0.0 - - - - - - -
26/06:30pm 17.4 SSW 17 24 1017.9 - 0.0 - - - - - - -
26/06:00pm 18.2 SSW 17 22 1017.8 - 0.0 - - - - - - -
26/05:30pm 19.1 SSW 16 21 1017.5 - 0.0 - - - - - - -
26/05:00pm 19.9 SSW 18 25 1017.5 - 0.0 - - - - - - -
26/04:30pm 20.9 SSW 17 23 1017.5 - 0.0 - - - - - - -
26/04:00pm 21.5 S 17 24 1017.4 - 0.0 - - - - - - -
26/03:30pm 22.1 SSW 18 24 1017.4 - 0.0 - - - - - - -
26/03:00pm 22.5 SSW 17 24 1017.3 - 0.0 - - - - - - -
26/02:30pm 23.0 SSW 17 24 1017.4 - 0.0 - - - - - - -
26/02:00pm 22.4 SW 17 23 1017.4 - 0.0 - - - - - - -
26/01:30pm 22.8 SSW 16 22 1017.7 - 0.0 - - - - - - -
26/01:00pm 22.2 SSW 16 23 1018.1 - 0.0 - - - - - - -
26/12:41pm 22.7 SSW 15 26 1018.4 - 0.0 - - - - - - -
26/12:30pm 22.4 SSW 12 17 1018.6 - 0.0 - - - - - - -
26/12:00pm 22.2 S 12 17 1019.3 - 0.0 - - - - - - -
26/11:30am 22.2 S 12 17 1019.6 - 0.0 - - - - - - -
26/11:00am 21.4 SSE 12 16 1020.0 - 0.0 - - - - - - -
26/10:30am 20.6 SSE 14 18 1020.4 - 0.0 - - - - - - -
26/10:00am 19.8 SE 13 18 1020.7 - 0.0 - - - - - - -
26/09:30am 18.8 SE 16 23 1020.8 - 0.0 - - - - - - -
26/09:00am 18.0 SSE 16 23 1021.0 - 0.0 - - - - - - -
26/08:30am 17.2 SSE 16 23 1020.6 - 0.0 - - - - - - -
26/08:00am 16.0 SSE 15 22 1020.4 - 0.0 - - - - - - -
26/07:30am 14.7 SSE 15 25 1020.3 - 0.0 - - - - - - -
26/07:25am 14.4 SSE 15 25 1020.2 - 0.0 - - - - - - -
26/07:00am 13.6 SSE 13 19 1020.0 - 0.0 - - - - - - -
26/06:30am 12.9 SSE 14 20 1019.7 - 0.0 - - - - - - -
26/06:00am 12.8 SSE 15 20 1019.5 - 0.0 - - - - - - -
26/05:30am 12.8 SSE 14 20 1019.0 - 0.0 - - - - - - -
26/05:00am 12.9 SSE 14 20 1018.6 - 0.0 - - - - - - -
26/04:30am 12.9 SSE 11 18 1018.4 - 0.0 - - - - - - -
26/04:00am 13.2 SSE 13 19 1018.1 - 0.0 - - - - - - -
26/03:30am 13.4 SSE 13 18 1017.9 - 0.0 - - - - - - -
26/03:00am 13.8 SSE 14 19 1018.0 - 0.0 - - - - - - -
26/02:30am 14.1 SSE 14 20 1018.2 - 0.0 - - - - - - -
26/02:00am 14.1 SSE 13 19 1018.3 - 0.0 - - - - - - -
26/01:30am 14.2 SSE 14 19 1018.3 - 0.0 - - - - - - -
26/01:00am 14.1 SSE 13 18 1018.2 - 0.0 - - - - - - -
26/12:30am 14.3 SSE 13 17 1018.2 - 0.0 - - - - - - -
26/12:00am 14.6 SSE 14 18 1018.2 - 0.0 - - - - - - -
 
Date/Time
WST
Temp
°C
Wind Pressure Rain since
9am
mm
Weather Cloud Vis
km
Sea
Height
m
Swell
Dir  Spd
kts
Gust
kts
hPa Trend Height
m
Period
s
Dir
25/11:30pm 14.9 SSE 13 18 1018.4 - 0.0 - - - - - - -
25/11:00pm 15.6 SSE 13 18 1018.3 - 0.0 - - - - - - -
25/10:30pm 16.0 S 12 17 1018.3 - 0.0 - - - - - - -
25/10:00pm 16.2 S 12 18 1018.2 - 0.0 - - - - - - -
25/09:30pm 16.2 S 11 15 1018.0 - 0.0 - - - - - - -
25/09:00pm 16.4 S 11 16 1017.9 - 0.0 - - - - - - -
25/08:30pm 16.5 S 10 13 1017.6 - 0.0 - - - - - - -
25/08:00pm 16.6 S 11 15 1017.4 - 0.0 - - - - - - -
25/07:30pm 17.1 S 13 18 1016.9 - 0.0 - - - - - - -
25/07:00pm 17.5 SSW 12 20 1016.7 - 0.0 - - - - - - -
25/06:30pm 17.8 S 12 18 1016.2 - 0.0 - - - - - - -

Other Formats:

Comma delimited format used in spreadsheet applications
http://www.bom.gov.au/fwo/IDW60701/IDW60701.95402.axf

JavaScript Object Notation format (JSON) in row-major order
http://www.bom.gov.au/fwo/IDW60701/IDW60701.95402.json